createdAt,value
2018-01-25T00:00:47.990Z,-7.07
2018-01-25T00:03:15.561Z,-7.13
2018-01-25T00:05:43.205Z,-7.18
2018-01-25T00:08:10.733Z,-7.21
2018-01-25T00:10:38.273Z,-7.19
2018-01-25T00:13:05.942Z,-7.23
2018-01-25T00:15:33.474Z,-7.25
2018-01-25T00:18:01.014Z,-7.33
2018-01-25T00:20:28.618Z,-7.43
2018-01-25T00:22:56.154Z,-7.44
2018-01-25T00:25:23.717Z,-7.44
2018-01-25T00:27:51.297Z,-7.44
2018-01-25T00:30:18.829Z,-7.45
2018-01-25T00:32:46.418Z,-7.49
2018-01-25T00:35:14.003Z,-7.48
2018-01-25T00:37:41.589Z,-7.50
2018-01-25T00:40:09.121Z,-7.57
2018-01-25T00:42:36.719Z,-7.69
2018-01-25T00:45:04.278Z,-7.73
2018-01-25T00:47:31.874Z,-7.73
2018-01-25T00:49:59.461Z,-7.76
2018-01-25T00:52:27.003Z,-7.73
2018-01-25T00:54:54.622Z,-7.74
2018-01-25T00:57:22.230Z,-7.71
2018-01-25T00:59:49.839Z,-7.66
2018-01-25T01:02:17.378Z,-7.58
2018-01-25T01:04:44.962Z,-7.51
2018-01-25T01:09:54.254Z,-7.50
2018-01-25T01:12:21.787Z,-7.48
2018-01-25T01:14:49.383Z,-7.41
2018-01-25T01:17:16.995Z,-7.42
2018-01-25T01:19:44.534Z,-7.40
2018-01-25T01:22:12.150Z,-7.40
2018-01-25T01:24:39.686Z,-7.38
2018-01-25T01:27:07.232Z,-7.44
2018-01-25T01:29:34.782Z,-7.45
2018-01-25T01:32:02.356Z,-7.47
2018-01-25T01:34:30.013Z,-7.48
2018-01-25T01:36:57.557Z,-7.53
2018-01-25T01:39:25.107Z,-7.54
2018-01-25T01:41:52.689Z,-7.55
2018-01-25T01:44:20.233Z,-7.59
2018-01-25T01:46:47.824Z,-7.71
2018-01-25T01:49:15.431Z,-7.76
2018-01-25T01:51:42.973Z,-7.79
2018-01-25T01:54:10.535Z,-7.82
2018-01-25T01:56:38.134Z,-7.84
2018-01-25T01:59:05.731Z,-7.91
2018-01-25T02:01:33.286Z,-7.91
2018-01-25T02:04:00.829Z,-8.01
2018-01-25T02:06:28.442Z,-8.03
2018-01-25T02:08:55.990Z,-8.11
2018-01-25T02:11:23.590Z,-8.18
2018-01-25T02:13:51.135Z,-8.24
2018-01-25T02:16:18.754Z,-8.28
2018-01-25T02:18:46.310Z,-8.28
2018-01-25T02:21:13.862Z,-8.29
2018-01-25T02:23:41.506Z,-8.32
2018-01-25T02:26:09.086Z,-8.31
2018-01-25T02:28:36.683Z,-8.37
2018-01-25T02:31:04.326Z,-8.39
2018-01-25T02:33:33.415Z,-8.42
2018-01-25T02:36:01.075Z,-8.42
2018-01-25T02:38:28.683Z,-8.44
2018-01-25T02:40:56.235Z,-8.46
2018-01-25T02:43:23.842Z,-8.42
2018-01-25T02:45:51.393Z,-8.44
2018-01-25T02:48:18.986Z,-8.43
2018-01-25T02:50:46.530Z,-8.43
2018-01-25T02:53:14.135Z,-8.48
2018-01-25T02:55:41.720Z,-8.46
2018-01-25T02:58:09.335Z,-8.47
2018-01-25T03:00:36.921Z,-8.45
2018-01-25T03:03:04.535Z,-8.44
2018-01-25T03:05:32.075Z,-8.49
2018-01-25T03:07:59.698Z,-8.54
2018-01-25T03:10:27.248Z,-8.53
2018-01-25T03:12:54.837Z,-8.57
2018-01-25T03:15:22.430Z,-8.56
2018-01-25T03:17:49.971Z,-8.60
2018-01-25T03:20:17.573Z,-8.69
2018-01-25T03:22:45.103Z,-8.62
2018-01-25T03:25:12.700Z,-8.55
2018-01-25T03:27:40.298Z,-8.50
2018-01-25T03:30:07.896Z,-8.47
2018-01-25T03:32:35.504Z,-8.50
2018-01-25T03:35:03.041Z,-8.48
2018-01-25T03:37:30.674Z,-8.52
2018-01-25T03:39:58.218Z,-8.63
2018-01-25T03:42:25.754Z,-8.63
2018-01-25T03:44:53.302Z,-8.70
2018-01-25T03:47:20.885Z,-8.71
2018-01-25T03:49:48.522Z,-8.72
2018-01-25T03:52:16.061Z,-8.74
2018-01-25T03:54:43.597Z,-8.75
2018-01-25T03:57:11.146Z,-8.74
2018-01-25T03:59:38.746Z,-8.71
2018-01-25T04:02:06.337Z,-8.70
2018-01-25T04:04:33.930Z,-8.70
2018-01-25T04:07:01.465Z,-8.69
2018-01-25T04:09:29.088Z,-8.70
2018-01-25T04:11:56.631Z,-8.72
2018-01-25T04:14:24.214Z,-8.79
2018-01-25T04:16:51.750Z,-8.79
2018-01-25T04:19:19.292Z,-8.84
2018-01-25T04:21:46.834Z,-8.82
2018-01-25T04:24:14.378Z,-8.88
2018-01-25T04:26:41.958Z,-8.89
2018-01-25T04:29:09.493Z,-8.91
2018-01-25T04:31:37.086Z,-8.95
2018-01-25T04:34:04.692Z,-8.98
2018-01-25T04:36:32.221Z,-8.94
2018-01-25T04:38:59.866Z,-8.93
2018-01-25T04:41:27.403Z,-8.93
2018-01-25T04:43:55.042Z,-8.93
2018-01-25T04:46:22.651Z,-8.95
2018-01-25T04:48:50.514Z,-9.00
2018-01-25T04:51:18.194Z,-9.03
2018-01-25T04:53:45.770Z,-9.03
2018-01-25T04:56:13.363Z,-9.01
2018-01-25T04:58:40.970Z,-9.04
2018-01-25T05:01:08.509Z,-8.98
2018-01-25T05:03:36.145Z,-9.02
2018-01-25T05:06:03.735Z,-8.97
2018-01-25T05:08:31.330Z,-8.97
2018-01-25T05:10:58.870Z,-9.04
2018-01-25T05:13:26.414Z,-9.02
2018-01-25T05:15:54.062Z,-9.03
2018-01-25T05:18:21.638Z,-9.07
2018-01-25T05:20:49.210Z,-9.03
2018-01-25T05:23:16.770Z,-9.04
2018-01-25T05:25:44.353Z,-9.06
2018-01-25T05:28:11.990Z,-9.08
2018-01-25T05:30:39.574Z,-9.13
2018-01-25T05:33:07.154Z,-9.12
2018-01-25T05:35:34.828Z,-9.14
2018-01-25T05:38:02.430Z,-9.12
2018-01-25T05:40:30.074Z,-9.04
2018-01-25T05:42:57.622Z,-9.02
2018-01-25T05:45:25.153Z,-9.02
2018-01-25T05:47:52.817Z,-9.00
2018-01-25T05:50:20.411Z,-8.96
2018-01-25T05:52:47.995Z,-8.86
2018-01-25T05:55:15.591Z,-8.81
2018-01-25T05:57:43.134Z,-8.77
2018-01-25T06:00:10.746Z,-8.75
2018-01-25T06:02:38.290Z,-8.73
2018-01-25T06:05:05.870Z,-8.73
2018-01-25T06:07:33.470Z,-8.68
2018-01-25T06:10:01.070Z,-8.64
2018-01-25T06:12:28.674Z,-8.63
2018-01-25T06:14:56.210Z,-8.58
2018-01-25T06:17:23.797Z,-8.54
2018-01-25T06:19:51.338Z,-8.51
2018-01-25T06:22:18.948Z,-8.49
2018-01-25T06:24:46.554Z,-8.46
2018-01-25T06:27:14.098Z,-8.54
2018-01-25T06:29:41.637Z,-8.49
2018-01-25T06:32:09.300Z,-8.42
2018-01-25T06:34:36.850Z,-8.27
2018-01-25T06:37:04.404Z,-8.09
2018-01-25T06:39:31.953Z,-7.94
2018-01-25T06:41:59.554Z,-7.71
2018-01-25T06:44:27.094Z,-7.50
2018-01-25T06:46:54.690Z,-7.33
2018-01-25T06:49:22.285Z,-7.20
2018-01-25T06:51:49.968Z,-7.04
2018-01-25T06:54:17.522Z,-6.89
2018-01-25T06:56:45.110Z,-6.82
2018-01-25T06:59:12.651Z,-6.73
2018-01-25T07:01:40.204Z,-6.75
2018-01-25T07:04:07.741Z,-6.69
2018-01-25T07:06:35.317Z,-6.63
2018-01-25T07:09:02.934Z,-6.49
2018-01-25T07:11:30.714Z,-6.45
2018-01-25T07:13:58.265Z,-6.29
2018-01-25T07:16:25.870Z,-6.26
2018-01-25T07:18:53.421Z,-6.24
2018-01-25T07:21:21.023Z,-6.10
2018-01-25T07:23:48.561Z,-6.11
2018-01-25T07:26:16.217Z,-6.12
2018-01-25T07:28:43.759Z,-6.06
2018-01-25T07:31:11.301Z,-6.04
2018-01-25T07:33:38.837Z,-6.02
2018-01-25T07:36:06.385Z,-6.16
2018-01-25T07:38:33.943Z,-6.07
2018-01-25T07:41:01.538Z,-6.37
2018-01-25T07:43:29.151Z,-6.48
2018-01-25T07:45:56.912Z,-6.62
2018-01-25T07:48:24.510Z,-6.50
2018-01-25T07:50:52.061Z,-6.44
2018-01-25T07:53:19.662Z,-6.44
2018-01-25T07:55:47.210Z,-6.43
2018-01-25T07:58:20.235Z,-6.36
2018-01-25T08:00:47.795Z,-6.20
2018-01-25T08:03:15.347Z,-6.12
2018-01-25T08:05:42.957Z,-6.01
2018-01-25T08:08:10.594Z,-5.78
2018-01-25T08:10:38.137Z,-5.75
2018-01-25T08:13:11.260Z,-5.54
2018-01-25T08:15:38.802Z,-5.25
2018-01-25T08:18:06.349Z,-4.95
2018-01-25T08:20:33.898Z,-4.92
2018-01-25T08:23:01.440Z,-4.66
2018-01-25T08:25:29.048Z,-4.44
2018-01-25T08:27:56.590Z,-4.49
2018-01-25T08:30:24.134Z,-4.26
2018-01-25T08:32:51.727Z,-3.95
2018-01-25T08:35:19.266Z,-3.69
2018-01-25T08:37:46.816Z,-3.43
2018-01-25T08:40:14.354Z,-3.31
2018-01-25T08:42:41.893Z,-3.13
2018-01-25T08:45:09.446Z,-3.02
2018-01-25T08:47:36.994Z,-2.81
2018-01-25T08:50:04.598Z,-2.57
2018-01-25T08:52:32.138Z,-2.40
2018-01-25T08:54:59.675Z,-2.43
2018-01-25T08:57:27.239Z,-2.42
2018-01-25T08:59:54.791Z,-2.21
2018-01-25T09:02:22.447Z,-2.03
2018-01-25T09:04:49.986Z,-1.95
2018-01-25T09:07:17.582Z,-1.68
2018-01-25T09:09:45.179Z,-1.39
2018-01-25T09:12:12.714Z,-1.33
2018-01-25T09:14:40.375Z,-1.19
2018-01-25T09:17:07.978Z,-0.86
2018-01-25T09:19:35.518Z,-0.71
2018-01-25T09:22:03.133Z,-0.70
2018-01-25T09:24:30.738Z,-0.68
2018-01-25T09:26:58.382Z,-0.77
2018-01-25T09:29:25.926Z,-0.74
2018-01-25T09:31:53.474Z,-0.65
2018-01-25T09:34:21.092Z,-0.01
2018-01-25T09:36:48.638Z,0.52
2018-01-25T09:39:16.251Z,0.81
2018-01-25T09:41:43.787Z,1.19
2018-01-25T09:44:11.396Z,1.54
2018-01-25T09:46:39.026Z,1.30
2018-01-25T09:49:06.574Z,1.28
2018-01-25T09:51:34.164Z,1.35
2018-01-25T09:54:01.706Z,1.26
2018-01-25T09:56:29.319Z,1.27
2018-01-25T09:58:56.939Z,1.51
2018-01-25T10:01:24.482Z,2.03
2018-01-25T10:03:52.076Z,2.20
2018-01-25T10:06:19.625Z,2.68
2018-01-25T10:08:47.165Z,2.73
2018-01-25T10:11:14.786Z,2.43
2018-01-25T10:13:42.351Z,2.77
2018-01-25T10:16:09.931Z,3.04
2018-01-25T10:18:37.464Z,3.39
2018-01-25T10:21:05.076Z,3.81
2018-01-25T10:23:32.639Z,4.25
2018-01-25T10:26:00.243Z,4.64
2018-01-25T10:28:27.867Z,5.15
2018-01-25T10:30:55.402Z,5.34
2018-01-25T10:33:23.002Z,5.60
2018-01-25T10:35:50.551Z,5.37
2018-01-25T10:38:18.158Z,5.27
2018-01-25T10:40:45.742Z,5.50
2018-01-25T10:43:13.334Z,6.02
2018-01-25T10:45:40.874Z,5.96
2018-01-25T10:48:08.521Z,6.56
2018-01-25T10:50:36.119Z,7.04
2018-01-25T10:53:03.716Z,7.28
2018-01-25T10:55:31.338Z,7.45
2018-01-25T10:57:58.943Z,7.59
2018-01-25T11:00:26.557Z,7.02
2018-01-25T11:02:54.106Z,7.16
2018-01-25T11:05:21.656Z,7.34
2018-01-25T11:07:49.258Z,7.16
2018-01-25T11:10:16.809Z,7.05
2018-01-25T11:12:44.410Z,8.25
2018-01-25T11:15:12.060Z,8.91
2018-01-25T11:17:39.592Z,8.84
2018-01-25T11:20:07.198Z,8.76
2018-01-25T11:22:34.803Z,9.25
2018-01-25T11:25:02.354Z,10.04
2018-01-25T11:27:30.029Z,10.15
2018-01-25T11:29:57.574Z,10.58
2018-01-25T11:32:25.118Z,10.82
2018-01-25T11:34:52.670Z,11.03
2018-01-25T11:37:20.213Z,10.31
2018-01-25T11:39:47.810Z,10.99
2018-01-25T11:42:15.356Z,11.18
2018-01-25T11:44:42.918Z,11.55
2018-01-25T11:47:10.561Z,12.17
2018-01-25T11:49:38.164Z,12.28
2018-01-25T11:52:05.757Z,12.18
2018-01-25T11:54:33.370Z,12.35
2018-01-25T11:57:01.574Z,12.13
2018-01-25T11:59:29.189Z,11.35
2018-01-25T12:01:56.786Z,9.27
2018-01-25T12:04:24.425Z,7.32
2018-01-25T12:06:51.965Z,6.52
2018-01-25T12:09:19.502Z,5.85
2018-01-25T12:11:47.606Z,4.85
2018-01-25T12:14:15.215Z,4.49
2018-01-25T12:16:43.589Z,3.31
2018-01-25T12:19:11.187Z,3.12
2018-01-25T12:21:38.724Z,2.66
2018-01-25T12:24:06.270Z,2.51
2018-01-25T12:26:33.867Z,2.23
2018-01-25T12:29:01.451Z,2.22
2018-01-25T12:31:29.058Z,1.96
2018-01-25T12:33:56.591Z,1.83
2018-01-25T12:36:24.151Z,1.68
2018-01-25T12:38:51.696Z,1.65
2018-01-25T12:41:19.274Z,1.56
2018-01-25T12:43:46.809Z,1.62
2018-01-25T12:46:14.415Z,1.60
2018-01-25T12:48:42.020Z,1.60
2018-01-25T12:51:09.558Z,1.61
2018-01-25T12:53:37.167Z,1.59
2018-01-25T12:56:04.711Z,1.53
2018-01-25T12:58:32.263Z,1.48
2018-01-25T13:00:59.870Z,1.45
2018-01-25T13:03:27.413Z,1.29
2018-01-25T13:05:54.993Z,1.25
2018-01-25T13:08:22.533Z,1.24
2018-01-25T13:10:50.136Z,1.21
2018-01-25T13:13:17.700Z,1.25
2018-01-25T13:15:45.275Z,1.19
2018-01-25T13:18:12.878Z,1.16
2018-01-25T13:20:40.427Z,1.17
2018-01-25T13:23:07.968Z,1.19
2018-01-25T13:25:35.585Z,1.11
2018-01-25T13:28:03.118Z,1.09
2018-01-25T13:30:30.707Z,1.13
2018-01-25T13:36:02.883Z,1.09
2018-01-25T13:38:30.425Z,1.10
2018-01-25T13:40:58.008Z,1.13
2018-01-25T13:43:25.548Z,1.03
2018-01-25T13:45:53.098Z,0.99
2018-01-25T13:48:20.642Z,0.93
2018-01-25T13:50:48.178Z,0.88
2018-01-25T13:53:15.727Z,0.85
2018-01-25T13:55:43.266Z,0.86
2018-01-25T13:58:10.846Z,0.87
2018-01-25T14:00:38.379Z,0.86
2018-01-25T14:03:05.913Z,0.79
2018-01-25T14:05:33.555Z,0.78
2018-01-25T14:08:01.090Z,0.79
2018-01-25T14:10:28.645Z,0.81
2018-01-25T14:12:56.194Z,0.77
2018-01-25T14:15:23.806Z,0.74
2018-01-25T14:17:51.345Z,0.73
2018-01-25T14:20:18.880Z,0.71
2018-01-25T14:22:46.426Z,0.66
2018-01-25T14:25:13.966Z,0.69
2018-01-25T14:27:41.519Z,0.64
2018-01-25T14:30:09.116Z,0.63
2018-01-25T14:32:36.740Z,0.61
2018-01-25T14:35:04.291Z,0.54
2018-01-25T14:37:31.892Z,0.52
2018-01-25T14:39:59.437Z,0.45
2018-01-25T14:42:26.970Z,0.34
2018-01-25T14:44:54.514Z,0.25
2018-01-25T14:47:22.059Z,0.24
2018-01-25T14:49:49.651Z,0.18
2018-01-25T14:52:17.186Z,0.17
2018-01-25T14:54:44.729Z,0.11
2018-01-25T14:57:12.278Z,-0.01
2018-01-25T14:59:39.882Z,-0.11
2018-01-25T15:02:07.446Z,-0.16
2018-01-25T15:04:34.990Z,-0.29
2018-01-25T15:07:02.589Z,-0.32
2018-01-25T15:09:30.194Z,-0.35
2018-01-25T15:11:57.738Z,-0.48
2018-01-25T15:14:25.294Z,-0.53
2018-01-25T15:16:52.838Z,-0.62
2018-01-25T15:19:20.397Z,-0.67
2018-01-25T15:21:47.946Z,-0.78
2018-01-25T15:24:15.640Z,-0.86
2018-01-25T15:26:48.988Z,-0.95
2018-01-25T15:29:16.602Z,-1.02
2018-01-25T15:31:44.146Z,-1.05
2018-01-25T15:34:11.750Z,-1.14
2018-01-25T15:36:39.373Z,-1.21
2018-01-25T15:39:06.979Z,-1.32
2018-01-25T15:41:34.572Z,-1.33
2018-01-25T15:44:02.147Z,-1.44
2018-01-25T15:46:29.755Z,-1.53
2018-01-25T15:48:57.307Z,-1.59
2018-01-25T15:51:24.924Z,-1.63
2018-01-25T15:53:52.590Z,-1.66
2018-01-25T15:56:20.134Z,-1.80
2018-01-25T15:58:47.695Z,-1.89
2018-01-25T16:01:15.259Z,-2.01
2018-01-25T16:03:42.867Z,-2.04
2018-01-25T16:06:10.477Z,-2.07
2018-01-25T16:08:38.027Z,-2.11
2018-01-25T16:11:05.623Z,-2.18
2018-01-25T16:13:33.174Z,-2.23
2018-01-25T16:16:00.720Z,-2.27
2018-01-25T16:18:28.282Z,-2.40
2018-01-25T16:20:55.831Z,-2.40
2018-01-25T16:23:23.393Z,-2.39
2018-01-25T16:25:51.003Z,-2.43
2018-01-25T16:28:29.360Z,-2.45
2018-01-25T16:30:56.901Z,-2.48
2018-01-25T16:33:24.502Z,-2.55
2018-01-25T16:35:52.115Z,-2.59
2018-01-25T16:38:19.709Z,-2.67
2018-01-25T16:40:47.324Z,-2.77
2018-01-25T16:43:14.882Z,-2.83
2018-01-25T16:45:42.568Z,-2.86
2018-01-25T16:48:10.118Z,-2.90
2018-01-25T16:50:37.863Z,-2.97
2018-01-25T16:53:05.422Z,-3.01
2018-01-25T16:55:33.042Z,-3.04
2018-01-25T16:58:00.634Z,-3.11
2018-01-25T17:00:28.256Z,-3.17
2018-01-25T17:02:55.806Z,-3.18
2018-01-25T17:05:23.365Z,-3.20
2018-01-25T17:07:51.007Z,-3.25
2018-01-25T17:10:18.674Z,-3.29
2018-01-25T17:12:46.222Z,-3.25
2018-01-25T17:15:13.770Z,-3.31
2018-01-25T17:17:41.334Z,-3.35
2018-01-25T17:20:08.886Z,-3.39
2018-01-25T17:22:36.535Z,-3.41
2018-01-25T17:25:04.120Z,-3.46
2018-01-25T17:27:31.666Z,-3.45
2018-01-25T17:29:59.234Z,-3.53
2018-01-25T17:32:26.794Z,-3.63
2018-01-25T17:34:55.302Z,-3.64
2018-01-25T17:37:22.865Z,-3.66
2018-01-25T17:39:50.475Z,-3.70
2018-01-25T17:42:18.031Z,-3.71
2018-01-25T17:44:45.594Z,-3.70
2018-01-25T17:47:13.178Z,-3.71
2018-01-25T17:49:40.729Z,-3.77
2018-01-25T17:52:08.449Z,-3.83
2018-01-25T17:54:35.999Z,-3.85
2018-01-25T17:57:03.660Z,-3.88
2018-01-25T17:59:31.230Z,-3.93
2018-01-25T18:01:58.814Z,-4.01
2018-01-25T18:04:26.370Z,-4.03
2018-01-25T18:06:53.913Z,-4.06
2018-01-25T18:09:21.527Z,-4.09
2018-01-25T18:11:49.076Z,-4.11
2018-01-25T18:14:16.679Z,-4.15
2018-01-25T18:16:44.240Z,-4.19
2018-01-25T18:19:11.799Z,-4.25
2018-01-25T18:21:39.419Z,-4.34
2018-01-25T18:24:06.966Z,-4.33
2018-01-25T18:26:34.581Z,-4.29
2018-01-25T18:29:02.130Z,-4.29
2018-01-25T18:31:29.730Z,-4.29
2018-01-25T18:33:57.336Z,-4.24
2018-01-25T18:36:24.943Z,-4.23
2018-01-25T18:38:52.507Z,-4.24
2018-01-25T18:41:20.123Z,-4.25
2018-01-25T18:43:47.786Z,-4.27
2018-01-25T18:46:15.349Z,-4.31
2018-01-25T18:48:42.946Z,-4.35
2018-01-25T18:51:10.499Z,-4.41
2018-01-25T18:53:38.093Z,-4.45
2018-01-25T18:56:05.722Z,-4.44
2018-01-25T18:58:33.895Z,-4.52
2018-01-25T19:01:01.445Z,-4.57
2018-01-25T19:03:29.046Z,-4.65
2018-01-25T19:05:56.704Z,-4.73
2018-01-25T19:08:24.332Z,-4.73
2018-01-25T19:10:51.885Z,-4.77
2018-01-25T19:13:19.441Z,-4.81
2018-01-25T19:15:47.026Z,-4.83
2018-01-25T19:18:14.644Z,-4.84
2018-01-25T19:20:42.186Z,-4.84
2018-01-25T19:23:09.980Z,-4.89
2018-01-25T19:25:37.524Z,-4.93
2018-01-25T19:28:05.065Z,-4.93
2018-01-25T19:30:32.621Z,-4.94
2018-01-25T19:33:00.177Z,-4.94
2018-01-25T19:35:27.738Z,-4.96
2018-01-25T19:37:55.362Z,-4.97
2018-01-25T19:40:22.955Z,-4.99
2018-01-25T19:45:24.436Z,-5.01
2018-01-25T19:47:52.044Z,-5.04
2018-01-25T19:50:19.659Z,-5.13
2018-01-25T19:52:47.215Z,-5.17
2018-01-25T19:55:14.763Z,-5.21
2018-01-25T19:57:42.465Z,-5.26
2018-01-25T20:00:10.065Z,-5.23
2018-01-25T20:02:37.657Z,-5.29
2018-01-25T20:05:05.214Z,-5.30
2018-01-25T20:07:32.814Z,-5.32
2018-01-25T20:10:00.382Z,-5.29
2018-01-25T20:12:27.983Z,-5.31
2018-01-25T20:14:55.536Z,-5.31
2018-01-25T20:17:23.091Z,-5.35
2018-01-25T20:19:50.690Z,-5.36
2018-01-25T20:22:18.300Z,-5.41
2018-01-25T20:24:45.855Z,-5.41
2018-01-25T20:27:13.470Z,-5.42
2018-01-25T20:29:41.014Z,-5.47
2018-01-25T20:32:08.582Z,-5.52
2018-01-25T20:34:36.195Z,-5.53
2018-01-25T20:37:03.790Z,-5.49
2018-01-25T20:39:31.338Z,-5.48
2018-01-25T20:41:58.886Z,-5.50
2018-01-25T20:44:26.450Z,-5.49
2018-01-25T20:46:53.993Z,-5.47
2018-01-25T20:49:21.551Z,-5.50
2018-01-25T20:51:49.150Z,-5.52
2018-01-25T20:54:16.806Z,-5.55
2018-01-25T20:56:44.411Z,-5.62
2018-01-25T20:59:12.018Z,-5.66
2018-01-25T21:01:39.631Z,-5.63
2018-01-25T21:04:07.183Z,-5.62
2018-01-25T21:06:34.801Z,-5.59
2018-01-25T21:09:02.351Z,-5.65
2018-01-25T21:11:30.012Z,-5.67
2018-01-25T21:13:57.618Z,-5.66
2018-01-25T21:16:25.162Z,-5.68
2018-01-25T21:18:52.772Z,-5.67
2018-01-25T21:21:20.424Z,-5.69
2018-01-25T21:23:47.992Z,-5.68
2018-01-25T21:26:15.533Z,-5.66
2018-01-25T21:28:43.201Z,-5.63
2018-01-25T21:31:10.746Z,-5.67
2018-01-25T21:33:38.361Z,-5.79
2018-01-25T21:36:05.913Z,-5.85
2018-01-25T21:38:33.543Z,-5.84
2018-01-25T21:41:01.142Z,-5.87
2018-01-25T21:43:28.689Z,-5.86
2018-01-25T21:45:56.287Z,-5.86
2018-01-25T21:48:23.866Z,-5.88
2018-01-25T21:50:51.410Z,-5.93
2018-01-25T21:53:19.003Z,-5.91
2018-01-25T21:55:46.603Z,-5.91
2018-01-25T21:58:14.239Z,-5.95
2018-01-25T22:00:41.810Z,-5.99
2018-01-25T22:03:09.363Z,-6.01
2018-01-25T22:05:36.958Z,-6.00
2018-01-25T22:08:04.516Z,-6.01
2018-01-25T22:10:32.126Z,-6.01
2018-01-25T22:12:59.744Z,-6.03
2018-01-25T22:15:27.290Z,-6.02
2018-01-25T22:17:54.881Z,-6.06
2018-01-25T22:20:22.426Z,-6.11
2018-01-25T22:22:49.974Z,-6.11
2018-01-25T22:25:17.526Z,-6.15
2018-01-25T22:27:45.126Z,-6.11
2018-01-25T22:30:12.711Z,-6.10
2018-01-25T22:32:40.250Z,-6.13
2018-01-25T22:35:07.790Z,-6.17
2018-01-25T22:37:35.394Z,-6.16
2018-01-25T22:40:03.043Z,-6.16
2018-01-25T22:42:30.928Z,-6.12
2018-01-25T22:44:58.471Z,-6.09
2018-01-25T22:47:26.010Z,-6.08
2018-01-25T22:49:53.614Z,-6.06
2018-01-25T22:52:21.215Z,-6.10
2018-01-25T22:54:48.835Z,-6.18
2018-01-25T22:57:16.395Z,-6.25
2018-01-25T22:59:43.997Z,-6.28
2018-01-25T23:02:11.572Z,-6.28
2018-01-25T23:04:39.116Z,-6.33
2018-01-25T23:07:06.706Z,-6.36
2018-01-25T23:12:32.427Z,-6.45
2018-01-25T23:14:59.990Z,-6.42
2018-01-25T23:17:27.526Z,-6.48
2018-01-25T23:19:55.082Z,-6.49
2018-01-25T23:22:22.630Z,-6.57
2018-01-25T23:24:50.222Z,-6.65
2018-01-25T23:27:17.823Z,-6.72
2018-01-25T23:29:45.378Z,-6.70
2018-01-25T23:32:12.931Z,-6.70
2018-01-25T23:34:40.492Z,-6.72
2018-01-25T23:37:08.162Z,-6.70
2018-01-25T23:39:35.762Z,-6.62
2018-01-25T23:42:03.328Z,-6.61
2018-01-25T23:44:30.946Z,-6.57
2018-01-25T23:46:58.519Z,-6.57
2018-01-25T23:49:26.195Z,-6.64
2018-01-25T23:51:53.762Z,-6.62
2018-01-25T23:54:21.318Z,-6.69
2018-01-25T23:56:48.896Z,-6.75
2018-01-25T23:59:16.443Z,-6.76
